createdAt,value
2018-04-06T00:00:44.262Z,60.90
2018-04-06T00:01:49.995Z,61.18
2018-04-06T00:02:55.758Z,61.36
2018-04-06T00:04:01.537Z,61.27
2018-04-06T00:05:08.052Z,61.34
2018-04-06T00:06:13.793Z,61.37
2018-04-06T00:07:19.540Z,61.28
2018-04-06T00:08:25.341Z,61.29
2018-04-06T00:09:31.100Z,61.23
2018-04-06T00:10:36.845Z,61.19
2018-04-06T00:11:42.268Z,61.21
2018-04-06T00:12:48.020Z,61.21
2018-04-06T00:13:53.793Z,61.29
2018-04-06T00:14:59.542Z,61.26
2018-04-06T00:16:06.048Z,61.34
2018-04-06T00:17:11.790Z,61.57
2018-04-06T00:18:17.544Z,61.52
2018-04-06T00:19:23.312Z,61.49
2018-04-06T00:20:29.052Z,61.49
2018-04-06T00:21:34.797Z,61.49
2018-04-06T00:22:40.576Z,61.46
2018-04-06T00:23:46.316Z,61.56
2018-04-06T00:24:52.853Z,61.66
2018-04-06T00:25:58.618Z,61.57
2018-04-06T00:27:04.392Z,61.64
2018-04-06T00:28:10.148Z,61.86
2018-04-06T00:29:15.914Z,61.93
2018-04-06T00:30:21.686Z,62.15
2018-04-06T00:31:28.185Z,62.27
2018-04-06T00:32:33.945Z,62.27
2018-04-06T00:33:39.705Z,62.36
2018-04-06T00:34:45.459Z,62.34
2018-04-06T00:35:51.659Z,62.42
2018-04-06T00:36:57.402Z,62.25
2018-04-06T00:38:03.173Z,62.26
2018-04-06T00:39:08.944Z,62.30
2018-04-06T00:40:14.700Z,62.44
2018-04-06T00:41:20.493Z,62.36
2018-04-06T00:42:26.246Z,62.38
2018-04-06T00:43:33.498Z,62.42
2018-04-06T00:44:39.237Z,62.54
2018-04-06T00:45:44.980Z,62.66
2018-04-06T00:46:50.744Z,62.73
2018-04-06T00:47:56.484Z,62.78
2018-04-06T00:49:01.919Z,62.73
2018-04-06T00:50:07.665Z,62.84
2018-04-06T00:51:13.074Z,62.81
2018-04-06T00:52:18.852Z,62.95
2018-04-06T00:53:42.621Z,62.96
2018-04-06T00:54:49.133Z,63.09
2018-04-06T00:55:55.096Z,63.28
2018-04-06T00:57:00.837Z,63.17
2018-04-06T00:58:06.608Z,63.20
2018-04-06T00:59:12.832Z,63.23
2018-04-06T01:00:19.342Z,63.45
2018-04-06T01:01:25.088Z,63.54
2018-04-06T01:02:30.836Z,63.52
2018-04-06T01:03:36.649Z,63.55
2018-04-06T01:04:43.155Z,63.61
2018-04-06T01:05:48.916Z,63.60
2018-04-06T01:06:54.665Z,63.58
2018-04-06T01:08:01.176Z,63.47
2018-04-06T01:09:07.071Z,63.47
2018-04-06T01:10:12.865Z,63.42
2018-04-06T01:11:18.609Z,63.48
2018-04-06T01:12:24.362Z,63.52
2018-04-06T01:13:30.105Z,63.41
2018-04-06T01:14:35.869Z,63.31
2018-04-06T01:15:41.625Z,63.41
2018-04-06T01:16:48.146Z,63.49
2018-04-06T01:17:53.893Z,63.59
2018-04-06T01:18:59.640Z,63.66
2018-04-06T01:20:05.098Z,63.58
2018-04-06T01:21:10.847Z,63.58
2018-04-06T01:22:17.351Z,63.65
2018-04-06T01:23:23.098Z,63.70
2018-04-06T01:24:29.065Z,63.58
2018-04-06T01:25:34.844Z,63.46
2018-04-06T01:26:41.389Z,63.45
2018-04-06T01:27:47.155Z,63.47
2018-04-06T01:28:52.900Z,63.53
2018-04-06T01:29:58.649Z,63.59
2018-04-06T01:31:04.431Z,63.60
2018-04-06T01:32:10.189Z,63.62
2018-04-06T01:33:16.707Z,63.67
2018-04-06T01:34:22.240Z,63.67
2018-04-06T01:35:27.997Z,63.83
2018-04-06T01:36:33.797Z,63.89
2018-04-06T01:37:40.312Z,63.94
2018-04-06T01:38:46.106Z,63.90
2018-04-06T01:39:51.844Z,64.07
2018-04-06T01:40:57.601Z,64.12
2018-04-06T01:42:03.380Z,64.01
2018-04-06T01:43:09.128Z,64.03
2018-04-06T01:44:14.887Z,63.92
2018-04-06T01:45:20.702Z,64.29
2018-04-06T01:46:26.457Z,64.51
2018-04-06T01:47:32.249Z,64.95
2018-04-06T01:48:37.993Z,65.14
2018-04-06T01:49:43.870Z,65.44
2018-04-06T01:50:49.672Z,65.56
2018-04-06T01:51:55.446Z,65.65
2018-04-06T01:53:01.225Z,65.91
2018-04-06T01:54:07.729Z,66.10
2018-04-06T01:55:13.482Z,66.16
2018-04-06T01:56:19.238Z,66.26
2018-04-06T01:57:25.032Z,66.17
2018-04-06T01:58:31.015Z,66.27
2018-04-06T01:59:36.762Z,66.30
2018-04-06T02:00:42.512Z,66.29
2018-04-06T02:01:48.357Z,66.20
2018-04-06T02:02:54.105Z,66.34
2018-04-06T02:03:59.881Z,66.31
2018-04-06T02:05:05.300Z,66.30
2018-04-06T02:06:11.821Z,66.48
2018-04-06T02:07:17.572Z,66.51
2018-04-06T02:08:23.313Z,66.62
2018-04-06T02:09:29.084Z,66.77
2018-04-06T02:10:35.356Z,66.77
2018-04-06T02:11:41.108Z,66.83
2018-04-06T02:12:46.860Z,66.91
2018-04-06T02:13:52.990Z,66.96
2018-04-06T02:14:59.337Z,67.09
2018-04-06T02:16:05.516Z,67.10
2018-04-06T02:17:11.253Z,67.27
2018-04-06T02:18:16.996Z,67.32
2018-04-06T02:19:22.740Z,67.51
2018-04-06T02:20:28.515Z,67.58
2018-04-06T02:21:34.268Z,67.41
2018-04-06T02:22:40.034Z,67.42
2018-04-06T02:23:46.552Z,67.53
2018-04-06T02:24:52.524Z,67.67
2018-04-06T02:25:58.471Z,67.71
2018-04-06T02:27:04.221Z,67.81
2018-04-06T02:28:10.007Z,67.79
2018-04-06T02:29:15.528Z,67.75
2018-04-06T02:30:21.027Z,67.82
2018-04-06T02:31:27.589Z,67.75
2018-04-06T02:32:34.478Z,67.67
2018-04-06T02:33:40.748Z,67.46
2018-04-06T02:34:46.498Z,67.57
2018-04-06T02:35:52.256Z,67.54
2018-04-06T02:36:58.045Z,67.61
2018-04-06T02:38:04.560Z,67.67
2018-04-06T02:39:09.992Z,67.74
2018-04-06T02:40:15.741Z,67.74
2018-04-06T02:41:21.262Z,67.65
2018-04-06T02:42:27.033Z,67.79
2018-04-06T02:43:32.796Z,67.88
2018-04-06T02:44:39.371Z,67.92
2018-04-06T02:45:45.891Z,67.86
2018-04-06T02:46:53.145Z,67.84
2018-04-06T02:47:58.919Z,67.73
2018-04-06T02:49:04.685Z,67.65
2018-04-06T02:50:11.554Z,67.79
2018-04-06T02:51:17.323Z,67.58
2018-04-06T02:52:23.103Z,67.52
2018-04-06T02:53:28.873Z,67.46
2018-04-06T02:54:35.425Z,67.44
2018-04-06T02:55:41.927Z,67.46
2018-04-06T02:56:47.664Z,67.43
2018-04-06T02:57:53.191Z,67.47
2018-04-06T02:58:58.956Z,67.47
2018-04-06T03:00:04.382Z,67.55
2018-04-06T03:01:10.136Z,67.58
2018-04-06T03:02:15.909Z,67.66
2018-04-06T03:03:22.437Z,67.78
2018-04-06T03:04:28.204Z,67.92
2018-04-06T03:05:33.952Z,68.01
2018-04-06T03:06:39.710Z,67.99
2018-04-06T03:07:46.210Z,68.06
2018-04-06T03:08:51.965Z,68.18
2018-04-06T03:09:58.076Z,68.35
2018-04-06T03:11:03.817Z,68.41
2018-04-06T03:12:09.570Z,68.38
2018-04-06T03:13:15.315Z,68.46
2018-04-06T03:14:21.065Z,68.43
2018-04-06T03:15:26.833Z,68.48
2018-04-06T03:16:32.912Z,68.37
2018-04-06T03:17:39.414Z,68.33
2018-04-06T03:18:45.165Z,68.39
2018-04-06T03:19:50.912Z,68.58
2018-04-06T03:20:56.682Z,68.53
2018-04-06T03:22:02.453Z,68.54
2018-04-06T03:23:08.964Z,68.65
2018-04-06T03:24:14.716Z,68.66
2018-04-06T03:25:20.540Z,68.60
2018-04-06T03:26:26.064Z,68.56
2018-04-06T03:27:31.813Z,68.62
2018-04-06T03:28:37.640Z,68.58
2018-04-06T03:29:43.458Z,68.71
2018-04-06T03:30:50.225Z,68.69
2018-04-06T03:31:56.753Z,68.76
2018-04-06T03:33:02.504Z,68.95
2018-04-06T03:34:08.246Z,68.96
2018-04-06T03:35:14.753Z,69.01
2018-04-06T03:36:20.504Z,69.14
2018-04-06T03:37:26.277Z,69.22
2018-04-06T03:38:32.032Z,69.34
2018-04-06T03:39:37.771Z,69.13
2018-04-06T03:40:44.300Z,69.15
2018-04-06T03:41:50.060Z,69.17
2018-04-06T03:42:55.816Z,69.17
2018-04-06T03:44:02.332Z,69.24
2018-04-06T03:45:08.074Z,69.47
2018-04-06T03:46:13.817Z,69.57
2018-04-06T03:47:19.566Z,69.74
2018-04-06T03:48:26.128Z,69.74
2018-04-06T03:49:31.529Z,69.74
2018-04-06T03:50:37.272Z,69.60
2018-04-06T03:51:43.017Z,69.78
2018-04-06T03:52:48.573Z,69.92
2018-04-06T03:53:54.337Z,69.74
2018-04-06T03:55:00.078Z,69.70
2018-04-06T03:56:05.824Z,69.83
2018-04-06T03:57:11.585Z,69.84
2018-04-06T03:58:18.090Z,69.82
2018-04-06T03:59:23.617Z,69.87
2018-04-06T04:00:29.388Z,69.78
2018-04-06T04:01:35.905Z,69.82
2018-04-06T04:02:41.653Z,69.76
2018-04-06T04:03:47.407Z,69.79
2018-04-06T04:04:53.178Z,69.95
2018-04-06T04:05:59.012Z,69.94
2018-04-06T04:07:04.748Z,70.00
2018-04-06T04:08:10.520Z,70.15
2018-04-06T04:09:16.251Z,70.26
2018-04-06T04:10:22.789Z,70.28
2018-04-06T04:11:28.542Z,70.22
2018-04-06T04:12:34.287Z,70.17
2018-04-06T04:13:40.055Z,70.25
2018-04-06T04:14:45.992Z,70.16
2018-04-06T04:15:52.192Z,70.09
2018-04-06T04:16:57.936Z,69.97
2018-04-06T04:18:03.736Z,70.13
2018-04-06T04:19:10.261Z,70.23
2018-04-06T04:20:16.011Z,70.41
2018-04-06T04:21:22.813Z,70.53
2018-04-06T04:22:29.344Z,70.55
2018-04-06T04:23:35.080Z,70.69
2018-04-06T04:24:40.856Z,70.70
2018-04-06T04:25:47.373Z,70.77
2018-04-06T04:26:53.356Z,70.88
2018-04-06T04:28:00.098Z,70.98
2018-04-06T04:29:06.147Z,70.98
2018-04-06T04:30:12.712Z,71.05
2018-04-06T04:31:19.298Z,71.14
2018-04-06T04:32:25.284Z,71.16
2018-04-06T04:33:31.062Z,71.20
2018-04-06T04:34:39.842Z,71.20
2018-04-06T04:35:46.285Z,71.29
2018-04-06T04:36:52.049Z,71.17
2018-04-06T04:37:57.823Z,71.13
2018-04-06T04:39:03.537Z,71.19
2018-04-06T04:40:09.497Z,71.20
2018-04-06T04:41:15.235Z,71.25
2018-04-06T04:42:21.313Z,71.26
2018-04-06T04:43:27.790Z,71.28
2018-04-06T04:44:33.628Z,71.33
2018-04-06T04:45:40.398Z,71.42
2018-04-06T04:46:46.291Z,71.40
2018-04-06T04:47:52.370Z,71.50
2018-04-06T04:48:59.688Z,71.42
2018-04-06T04:50:05.643Z,71.43
2018-04-06T04:51:12.429Z,71.46
2018-04-06T04:52:18.282Z,71.47
2018-04-06T04:53:24.301Z,71.39
2018-04-06T04:54:31.118Z,71.37
2018-04-06T04:55:36.869Z,71.32
2018-04-06T04:56:42.616Z,71.29
2018-04-06T04:57:48.649Z,71.21
2018-04-06T04:58:54.401Z,71.12
2018-04-06T05:00:00.169Z,71.09
2018-04-06T05:01:05.940Z,71.08
2018-04-06T05:02:11.715Z,71.21
2018-04-06T05:03:18.229Z,71.06
2018-04-06T05:04:24.021Z,70.98
2018-04-06T05:05:30.545Z,70.94
2018-04-06T05:06:36.834Z,70.99
2018-04-06T05:07:43.365Z,70.99
2018-04-06T05:08:49.908Z,70.91
2018-04-06T05:09:55.652Z,70.96
2018-04-06T05:11:02.929Z,70.89
2018-04-06T05:12:08.682Z,70.83
2018-04-06T05:13:14.432Z,70.82
2018-04-06T05:14:21.015Z,70.81
2018-04-06T05:15:27.529Z,70.84
2018-04-06T05:16:33.324Z,70.89
2018-04-06T05:17:39.102Z,70.91
2018-04-06T05:18:45.034Z,70.99
2018-04-06T05:19:50.780Z,71.01
2018-04-06T05:20:56.993Z,70.82
2018-04-06T05:22:02.762Z,70.66
2018-04-06T05:23:08.503Z,70.59
2018-04-06T05:24:14.428Z,70.50
2018-04-06T05:25:20.164Z,70.43
2018-04-06T05:26:25.908Z,70.33
2018-04-06T05:27:31.700Z,70.30
2018-04-06T05:28:37.440Z,70.25
2018-04-06T05:29:42.965Z,70.25
2018-04-06T05:30:48.778Z,70.23
2018-04-06T05:31:55.386Z,70.18
2018-04-06T05:33:00.820Z,70.15
2018-04-06T05:34:06.573Z,70.12
2018-04-06T05:35:12.313Z,70.02
2018-04-06T05:36:18.819Z,70.00
2018-04-06T05:37:24.572Z,69.95
2018-04-06T05:38:30.461Z,69.93
2018-04-06T05:39:36.200Z,69.90
2018-04-06T05:40:42.004Z,69.87
2018-04-06T05:41:47.752Z,69.86
2018-04-06T05:42:53.493Z,69.82
2018-04-06T05:43:59.259Z,69.72
2018-04-06T05:45:05.004Z,69.53
2018-04-06T05:46:10.525Z,69.38
2018-04-06T05:47:16.272Z,69.23
2018-04-06T05:48:22.020Z,69.19
2018-04-06T05:49:27.820Z,69.15
2018-04-06T05:50:33.589Z,69.08
2018-04-06T05:51:39.333Z,68.92
2018-04-06T05:52:45.305Z,68.80
2018-04-06T05:53:51.055Z,68.70
2018-04-06T05:54:57.585Z,68.59
2018-04-06T05:56:03.338Z,68.49
2018-04-06T05:57:09.091Z,68.47
2018-04-06T05:58:15.614Z,68.34
2018-04-06T05:59:21.361Z,68.27
2018-04-06T06:00:27.129Z,68.14
2018-04-06T06:01:32.881Z,68.03
2018-04-06T06:02:39.407Z,67.98
2018-04-06T06:03:45.151Z,67.83
2018-04-06T06:04:50.968Z,67.85
2018-04-06T06:05:56.784Z,67.82
2018-04-06T06:07:02.706Z,67.72
2018-04-06T06:08:08.460Z,67.64
2018-04-06T06:09:14.973Z,67.50
2018-04-06T06:10:20.726Z,67.51
2018-04-06T06:11:26.490Z,67.54
2018-04-06T06:12:33.015Z,67.49
2018-04-06T06:13:38.766Z,67.41
2018-04-06T06:14:44.512Z,67.31
2018-04-06T06:15:50.271Z,67.23
2018-04-06T06:16:56.049Z,67.11
2018-04-06T06:18:01.841Z,67.04
2018-04-06T06:19:07.765Z,66.96
2018-04-06T06:20:12.956Z,66.91
2018-04-06T06:21:19.477Z,66.83
2018-04-06T06:22:25.245Z,66.78
2018-04-06T06:23:31.753Z,66.72
2018-04-06T06:24:37.500Z,66.74
2018-04-06T06:25:43.253Z,66.74
2018-04-06T06:26:49.006Z,66.60
2018-04-06T06:27:54.789Z,66.50
2018-04-06T06:29:00.599Z,66.42
2018-04-06T06:30:06.526Z,66.30
2018-04-06T06:31:12.299Z,66.18
2018-04-06T06:32:19.282Z,66.13
2018-04-06T06:33:25.056Z,66.02
2018-04-06T06:34:30.811Z,65.97
2018-04-06T06:35:36.576Z,65.87
2018-04-06T06:36:42.313Z,65.79
2018-04-06T06:37:48.061Z,65.68
2018-04-06T06:38:53.833Z,65.54
2018-04-06T06:39:59.581Z,65.41
2018-04-06T06:41:05.330Z,65.29
2018-04-06T06:42:11.088Z,65.17
2018-04-06T06:43:16.839Z,65.12
2018-04-06T06:44:22.384Z,65.02
2018-04-06T06:45:28.129Z,64.92
2018-04-06T06:46:33.875Z,64.79
2018-04-06T06:47:39.613Z,64.70
2018-04-06T06:48:45.134Z,64.52
2018-04-06T06:49:50.909Z,64.28
2018-04-06T06:50:56.647Z,64.08
2018-04-06T06:52:03.171Z,63.90
2018-04-06T06:53:08.911Z,63.72
2018-04-06T06:54:14.665Z,63.56
2018-04-06T06:55:20.432Z,63.37
2018-04-06T06:56:26.954Z,63.19
2018-04-06T06:57:32.700Z,62.98
2018-04-06T06:58:38.442Z,62.82
2018-04-06T06:59:44.205Z,62.62
2018-04-06T07:00:49.973Z,62.42
2018-04-06T07:01:56.481Z,62.26
2018-04-06T07:03:02.220Z,62.11
2018-04-06T07:04:07.967Z,61.93
2018-04-06T07:05:13.716Z,61.80
2018-04-06T07:06:19.489Z,61.60
2018-04-06T07:07:26.003Z,61.48
2018-04-06T07:08:32.027Z,61.39
2018-04-06T07:09:38.017Z,61.17
2018-04-06T07:10:43.789Z,60.98
2018-04-06T07:11:50.300Z,60.77
2018-04-06T07:12:56.051Z,60.48
2018-04-06T07:14:01.810Z,60.08
2018-04-06T07:15:07.791Z,59.61
2018-04-06T07:16:14.296Z,58.72
2018-04-06T07:17:20.060Z,57.17
2018-04-06T07:18:25.721Z,55.19
2018-04-06T07:19:32.295Z,53.24
2018-04-06T07:20:38.065Z,51.30
2018-04-06T07:21:43.823Z,49.66
2018-04-06T07:22:49.613Z,47.81
2018-04-06T07:23:55.480Z,46.55
2018-04-06T07:25:01.518Z,45.44
2018-04-06T07:26:07.319Z,44.38
2018-04-06T07:27:13.065Z,43.22
2018-04-06T07:28:18.650Z,42.63
2018-04-06T07:29:24.419Z,42.16
2018-04-06T07:30:30.200Z,41.00
2018-04-06T07:31:36.600Z,39.19
2018-04-06T07:32:42.360Z,38.17
2018-04-06T07:33:48.216Z,37.80
2018-04-06T07:34:54.008Z,37.42
2018-04-06T07:35:59.536Z,36.99
2018-04-06T07:37:05.306Z,36.27
2018-04-06T07:38:11.072Z,35.48
2018-04-06T07:39:18.372Z,34.91
2018-04-06T07:40:24.895Z,33.84
2018-04-06T07:41:30.474Z,33.38
2018-04-06T07:42:37.050Z,33.18
2018-04-06T07:43:42.808Z,32.81
2018-04-06T07:44:48.597Z,31.74
2018-04-06T07:45:54.365Z,31.56
2018-04-06T07:47:00.894Z,31.39
2018-04-06T07:48:06.682Z,30.63
2018-04-06T07:49:13.233Z,29.55
2018-04-06T07:50:19.580Z,29.50
2018-04-06T07:51:26.236Z,29.59
2018-04-06T07:52:31.800Z,29.35
2018-04-06T07:53:37.553Z,29.07
2018-04-06T07:54:43.439Z,28.67
2018-04-06T07:55:49.256Z,28.78
2018-04-06T07:56:55.092Z,28.46
2018-04-06T07:58:00.703Z,28.26
2018-04-06T07:59:07.245Z,28.26
2018-04-06T08:00:13.856Z,27.94
2018-04-06T08:01:19.460Z,27.23
2018-04-06T08:02:26.055Z,27.01
2018-04-06T08:03:31.952Z,27.40
2018-04-06T08:04:38.548Z,27.22
2018-04-06T08:05:44.441Z,26.80
2018-04-06T08:06:51.009Z,26.43
2018-04-06T08:07:56.566Z,25.50
2018-04-06T08:09:02.874Z,25.15
2018-04-06T08:10:08.637Z,25.39
2018-04-06T08:11:14.401Z,25.48
2018-04-06T08:12:20.963Z,25.46
2018-04-06T08:13:27.506Z,25.33
2018-04-06T08:14:33.444Z,24.95
2018-04-06T08:15:39.221Z,24.78
2018-04-06T08:16:44.732Z,24.98
2018-04-06T08:17:51.276Z,25.21
2018-04-06T08:18:57.031Z,24.86
2018-04-06T08:20:02.788Z,25.26
2018-04-06T08:21:09.312Z,25.57
2018-04-06T08:22:15.068Z,25.88
2018-04-06T08:23:21.627Z,25.56
2018-04-06T08:24:27.407Z,25.74
2018-04-06T08:25:33.157Z,25.65
2018-04-06T08:26:38.697Z,25.50
2018-04-06T08:27:44.453Z,24.98
2018-04-06T08:28:50.606Z,24.71
2018-04-06T08:29:56.362Z,24.48
2018-04-06T08:31:02.124Z,24.06
2018-04-06T08:32:07.876Z,24.23
2018-04-06T08:33:13.641Z,23.46
2018-04-06T08:34:19.416Z,22.75
2018-04-06T08:35:25.192Z,22.85
2018-04-06T08:36:30.950Z,22.86
2018-04-06T08:37:36.713Z,23.22
2018-04-06T08:38:42.464Z,23.55
2018-04-06T08:39:48.240Z,23.17
2018-04-06T08:40:54.767Z,22.76
2018-04-06T08:42:00.522Z,22.40
2018-04-06T08:43:06.265Z,22.50
2018-04-06T08:44:12.058Z,22.44
2018-04-06T08:45:17.837Z,22.16
2018-04-06T08:46:23.595Z,22.09
2018-04-06T08:47:29.694Z,21.72
2018-04-06T08:48:35.439Z,21.39
2018-04-06T08:49:41.189Z,21.20
2018-04-06T08:50:46.954Z,21.01
2018-04-06T08:51:52.841Z,20.98
2018-04-06T08:52:59.349Z,20.83
2018-04-06T08:54:05.103Z,20.70
2018-04-06T08:55:10.857Z,20.80
2018-04-06T08:56:17.444Z,20.74
2018-04-06T08:57:23.965Z,20.68
2018-04-06T08:58:29.713Z,20.75
2018-04-06T08:59:34.973Z,20.64
2018-04-06T09:00:40.715Z,20.46
2018-04-06T09:01:46.479Z,20.41
2018-04-06T09:02:52.228Z,19.79
2018-04-06T09:03:57.980Z,19.97
2018-04-06T09:05:03.737Z,19.92
2018-04-06T09:06:09.484Z,19.93
2018-04-06T09:07:15.265Z,19.92
2018-04-06T09:08:21.785Z,20.16
2018-04-06T09:09:27.533Z,20.09
2018-04-06T09:10:33.272Z,20.11
2018-04-06T09:11:39.026Z,20.78
2018-04-06T09:12:45.821Z,20.42
2018-04-06T09:13:52.789Z,20.07
2018-04-06T09:14:58.629Z,19.68
2018-04-06T09:16:04.192Z,19.93
2018-04-06T09:17:10.313Z,19.99
2018-04-06T09:18:16.843Z,20.30
2018-04-06T09:19:22.361Z,20.53
2018-04-06T09:20:28.122Z,20.46
2018-04-06T09:21:33.889Z,20.79
2018-04-06T09:22:39.265Z,20.43
2018-04-06T09:23:45.036Z,20.07
2018-04-06T09:24:50.793Z,19.96
2018-04-06T09:25:57.013Z,19.53
2018-04-06T09:27:02.549Z,19.24
2018-04-06T09:28:08.314Z,19.23
2018-04-06T09:29:14.117Z,19.28
2018-04-06T09:30:19.873Z,19.47
2018-04-06T09:31:25.621Z,19.90
2018-04-06T09:32:31.373Z,19.99
2018-04-06T09:33:37.122Z,19.92
2018-04-06T09:34:43.676Z,20.01
2018-04-06T09:35:49.422Z,19.86
2018-04-06T09:36:55.164Z,19.44
2018-04-06T09:38:01.749Z,19.33
2018-04-06T09:39:07.909Z,19.51
2018-04-06T09:40:13.708Z,19.53
2018-04-06T09:41:19.466Z,19.52
2018-04-06T09:42:25.980Z,19.42
2018-04-06T09:43:31.767Z,19.60
2018-04-06T09:44:38.281Z,20.18
2018-04-06T09:45:44.087Z,20.65
2018-04-06T09:46:49.841Z,21.06
2018-04-06T09:47:55.596Z,21.49
2018-04-06T09:49:01.353Z,21.40
2018-04-06T09:50:07.111Z,21.34
2018-04-06T09:51:12.902Z,21.82
2018-04-06T09:52:18.742Z,21.86
2018-04-06T09:53:24.509Z,21.55
2018-04-06T09:54:30.281Z,21.58
2018-04-06T09:55:36.049Z,21.54
2018-04-06T09:56:42.586Z,21.83
2018-04-06T09:57:48.336Z,21.91
2018-04-06T09:58:54.110Z,21.72
2018-04-06T09:59:59.864Z,21.79
2018-04-06T10:01:07.049Z,21.53
2018-04-06T10:02:13.755Z,21.04
2018-04-06T10:03:19.507Z,20.91
2018-04-06T10:04:25.260Z,21.05
2018-04-06T10:05:31.776Z,21.09
2018-04-06T10:06:37.538Z,21.00
2018-04-06T10:07:43.313Z,20.53
2018-04-06T10:08:48.847Z,20.59
2018-04-06T10:09:54.612Z,20.60
2018-04-06T10:11:00.137Z,20.58
2018-04-06T10:12:05.900Z,20.25
2018-04-06T10:13:11.685Z,20.55
2018-04-06T10:14:17.451Z,20.66
2018-04-06T10:15:22.970Z,20.74
2018-04-06T10:16:29.489Z,20.78
2018-04-06T10:17:35.268Z,21.12
2018-04-06T10:18:41.820Z,21.80
2018-04-06T10:19:47.576Z,22.12
2018-04-06T10:20:54.100Z,22.57
2018-04-06T10:21:59.917Z,23.24
2018-04-06T10:23:06.656Z,23.70
2018-04-06T10:24:13.206Z,23.65
2018-04-06T10:25:19.730Z,23.88
2018-04-06T10:26:25.493Z,24.10
2018-04-06T10:27:32.020Z,24.40
2018-04-06T10:28:37.782Z,24.64
2018-04-06T10:29:43.646Z,25.17
2018-04-06T10:30:49.971Z,25.40
2018-04-06T10:31:55.716Z,25.37
2018-04-06T10:33:01.503Z,25.43
2018-04-06T10:34:07.256Z,25.65
2018-04-06T10:35:13.074Z,25.96
2018-04-06T10:36:20.526Z,26.70
2018-04-06T10:37:26.269Z,27.31
2018-04-06T10:38:32.041Z,27.34
2018-04-06T10:39:38.561Z,27.09
2018-04-06T10:40:44.395Z,27.61
2018-04-06T10:41:50.152Z,27.50
2018-04-06T10:42:55.902Z,27.89
2018-04-06T10:44:01.666Z,27.96
2018-04-06T10:45:08.185Z,27.81
2018-04-06T10:46:13.992Z,28.02
2018-04-06T10:47:19.775Z,28.42
2018-04-06T10:48:25.520Z,28.75
2018-04-06T10:49:31.270Z,28.94
2018-04-06T10:50:37.049Z,29.26
2018-04-06T10:51:42.817Z,29.40
2018-04-06T10:52:48.576Z,29.40
2018-04-06T10:53:54.341Z,29.64
2018-04-06T10:55:00.100Z,29.58
2018-04-06T10:56:06.674Z,29.38
2018-04-06T10:57:12.461Z,29.67
2018-04-06T10:58:18.232Z,29.36
2018-04-06T10:59:23.984Z,29.50
2018-04-06T11:00:30.308Z,29.94
2018-04-06T11:01:36.068Z,30.68
2018-04-06T11:02:41.844Z,31.15
2018-04-06T11:03:47.592Z,31.51
2018-04-06T11:04:53.345Z,31.26
2018-04-06T11:05:59.098Z,30.92
2018-04-06T11:07:04.612Z,30.90
2018-04-06T11:08:10.061Z,31.39
2018-04-06T11:09:15.822Z,30.81
2018-04-06T11:10:21.585Z,30.70
2018-04-06T11:11:28.106Z,30.75
2018-04-06T11:12:33.883Z,30.75
2018-04-06T11:13:39.650Z,30.94
2018-04-06T11:14:45.405Z,31.44
2018-04-06T11:15:51.160Z,31.93
2018-04-06T11:16:56.917Z,32.14
2018-04-06T11:18:02.665Z,32.46
2018-04-06T11:19:08.453Z,32.78
2018-04-06T11:20:14.987Z,32.78
2018-04-06T11:21:22.254Z,32.59
2018-04-06T11:22:27.773Z,32.54
2018-04-06T11:23:33.780Z,32.09
2018-04-06T11:24:39.561Z,32.49
2018-04-06T11:25:45.314Z,33.07
2018-04-06T11:26:51.083Z,33.39
2018-04-06T11:27:57.618Z,33.53
2018-04-06T11:29:03.388Z,33.72
2018-04-06T11:30:09.953Z,34.23
2018-04-06T11:31:16.474Z,34.21
2018-04-06T11:32:22.233Z,34.30
2018-04-06T11:33:27.997Z,34.51
2018-04-06T11:34:34.527Z,34.93
2018-04-06T11:35:40.312Z,35.15
2018-04-06T11:36:46.092Z,35.44
2018-04-06T11:37:51.844Z,35.38
2018-04-06T11:38:57.602Z,35.53
2018-04-06T11:40:03.885Z,35.65
2018-04-06T11:41:10.433Z,35.38
2018-04-06T11:42:16.964Z,35.26
2018-04-06T11:43:22.727Z,35.15
2018-04-06T11:44:28.484Z,35.16
2018-04-06T11:45:35.008Z,35.63
2018-04-06T11:46:40.781Z,35.74
2018-04-06T11:47:47.309Z,35.75
2018-04-06T11:48:53.082Z,36.29
2018-04-06T11:49:59.380Z,36.52
2018-04-06T11:51:05.149Z,36.36
2018-04-06T11:52:10.938Z,36.64
2018-04-06T11:53:16.696Z,36.47
2018-04-06T11:54:23.596Z,36.24
2018-04-06T11:55:29.357Z,36.18
2018-04-06T11:56:35.127Z,35.92
2018-04-06T11:57:41.690Z,35.81
2018-04-06T11:58:47.448Z,35.41
2018-04-06T11:59:53.979Z,35.36
2018-04-06T12:00:59.493Z,35.35
2018-04-06T12:02:05.030Z,35.42
2018-04-06T12:03:10.812Z,35.59
2018-04-06T12:04:16.572Z,35.93
2018-04-06T12:05:23.096Z,36.13
2018-04-06T12:06:28.851Z,35.89
2018-04-06T12:07:34.383Z,35.84
2018-04-06T12:08:40.183Z,35.78
2018-04-06T12:09:45.928Z,35.69
2018-04-06T12:10:51.693Z,34.95
2018-04-06T12:11:57.448Z,34.35
2018-04-06T12:13:03.224Z,34.15
2018-04-06T12:14:09.768Z,34.13
2018-04-06T12:15:15.520Z,33.84
2018-04-06T12:16:22.046Z,33.88
2018-04-06T12:17:27.800Z,33.37
2018-04-06T12:18:33.569Z,33.60
2018-04-06T12:19:40.103Z,33.62
2018-04-06T12:20:45.868Z,33.72
2018-04-06T12:21:52.392Z,33.44
2018-04-06T12:22:58.154Z,33.38
2018-04-06T12:24:03.922Z,33.34
2018-04-06T12:25:09.702Z,33.45
2018-04-06T12:26:15.521Z,33.55
2018-04-06T12:27:21.291Z,33.70
2018-04-06T12:28:28.725Z,33.79
2018-04-06T12:29:34.551Z,33.31
2018-04-06T12:30:40.628Z,33.57
2018-04-06T12:31:46.392Z,33.92
2018-04-06T12:32:52.150Z,33.97
2018-04-06T12:33:57.914Z,33.79
2018-04-06T12:35:04.006Z,33.76
2018-04-06T12:36:10.869Z,33.48
2018-04-06T12:37:16.402Z,33.45
2018-04-06T12:38:22.217Z,33.43
2018-04-06T12:39:28.000Z,33.48
2018-04-06T12:40:34.037Z,33.48
2018-04-06T12:41:39.829Z,33.26
2018-04-06T12:42:46.220Z,33.06
2018-04-06T12:43:52.385Z,32.32
2018-04-06T12:44:59.053Z,31.61
2018-04-06T12:46:05.545Z,31.47
2018-04-06T12:47:11.501Z,31.53
2018-04-06T12:48:17.370Z,31.62
2018-04-06T12:49:23.126Z,31.54
2018-04-06T12:50:29.702Z,31.34
2018-04-06T12:51:35.956Z,31.08
2018-04-06T12:52:42.004Z,30.72
2018-04-06T12:53:47.990Z,31.22
2018-04-06T12:54:54.221Z,31.31
2018-04-06T12:56:00.107Z,31.09
2018-04-06T12:57:06.693Z,30.85
2018-04-06T12:58:13.274Z,30.63
2018-04-06T12:59:19.940Z,30.64
2018-04-06T13:00:25.473Z,30.59
2018-04-06T13:01:32.155Z,30.81
2018-04-06T13:02:37.914Z,30.51
2018-04-06T13:03:43.536Z,30.65
2018-04-06T13:04:49.054Z,30.54
2018-04-06T13:05:56.289Z,30.52
2018-04-06T13:07:02.056Z,30.49
2018-04-06T13:08:07.813Z,30.32
2018-04-06T13:09:14.060Z,30.41
2018-04-06T13:10:20.665Z,29.82
2018-04-06T13:11:26.893Z,29.57
2018-04-06T13:12:32.654Z,29.46
2018-04-06T13:13:38.412Z,29.61
2018-04-06T13:14:44.188Z,30.00
2018-04-06T13:15:50.725Z,30.33
2018-04-06T13:16:56.482Z,29.70
2018-04-06T13:18:02.233Z,29.80
2018-04-06T13:19:08.764Z,30.13
2018-04-06T13:20:14.533Z,30.47
2018-04-06T13:21:21.071Z,30.83
2018-04-06T13:22:26.826Z,30.89
2018-04-06T13:23:32.585Z,31.04
2018-04-06T13:24:39.113Z,31.09
2018-04-06T13:25:45.118Z,31.41
2018-04-06T13:26:50.884Z,31.55
2018-04-06T13:27:57.207Z,32.18
2018-04-06T13:29:02.989Z,32.32
2018-04-06T13:30:08.651Z,32.37
2018-04-06T13:31:14.825Z,32.71
2018-04-06T13:32:21.253Z,32.71
2018-04-06T13:33:27.118Z,32.42
2018-04-06T13:34:33.660Z,32.11
2018-04-06T13:35:39.425Z,32.15
2018-04-06T13:36:46.011Z,32.19
2018-04-06T13:37:52.331Z,32.16
2018-04-06T13:38:58.078Z,32.06
2018-04-06T13:40:04.031Z,31.73
2018-04-06T13:41:10.554Z,31.84
2018-04-06T13:42:16.437Z,31.86
2018-04-06T13:43:23.021Z,31.89
2018-04-06T13:44:28.781Z,31.96
2018-04-06T13:45:34.542Z,31.84
2018-04-06T13:46:40.384Z,31.77
2018-04-06T13:47:47.101Z,31.76
2018-04-06T13:48:52.636Z,31.90
2018-04-06T13:49:58.406Z,31.64
2018-04-06T13:51:04.193Z,31.45
2018-04-06T13:52:09.962Z,31.17
2018-04-06T13:53:16.509Z,31.43
2018-04-06T13:54:23.053Z,31.55
2018-04-06T13:55:28.812Z,31.76
2018-04-06T13:56:35.346Z,32.06
2018-04-06T13:57:41.441Z,32.33
2018-04-06T13:58:47.225Z,32.39
2018-04-06T13:59:52.999Z,31.87
2018-04-06T14:00:59.590Z,31.54
2018-04-06T14:02:05.201Z,31.57
2018-04-06T14:03:11.902Z,31.58
2018-04-06T14:04:17.793Z,31.57
2018-04-06T14:05:23.540Z,31.59
2018-04-06T14:06:30.086Z,31.68
2018-04-06T14:07:35.849Z,32.00
2018-04-06T14:08:42.443Z,32.31
2018-04-06T14:09:48.222Z,32.39